Portada
METAR-TAF:

METAR-TAF

Aeroports :

Iakutsk, Rússia

latitud: 62-01N, longitud: 129-43E, altitud: 103 m

Observació

L'informe es va fer fa 12 minuts, a les 21:00 UTC
Vent 2 kt del Oest
Temperatura 10°C
Humitat 87%
Pressió 1020 hPa
Visibilitat 10 km o més
sense núvols per sota de 1500 mi sense presència de cumulonimbus.

METAR: UEEE 142100Z 26001MPS CAVOK 10/08 Q1020 R23L/09//60 NOSIG RMK QFE756

Hora: 06:12 (21:12 UTC)

Pronòstic

L'informe es va fer fa 1 hora i 12 minuts, a les 20:00 UTC
Pronòstic vàlid del 14 a les 21 UTC al 16 a les 03 UTC
Vent 6 kt del Sud/Sud-Est
Visibilitat 10 km o més
sense núvols per sota de 1500 mi sense presència de cumulonimbus.
Temporalment
l' 14 a les 21 UTC al 14 a les 24 UTC
Visibilitat: 0300 m
a una alçada de 300 ft
boira

TAF: UEEE 142000Z 1421/1603 16003MPS CAVOK TEMPO 1421/1424 0300 FG VV003

Observacions i pronòstics meteorològics de més de 4000 aeroports (METAR i TAF).

Les estacions disponibles són els punts grocs i vermells al mapa.

Posi el ratolí al punt desitjat per veure el nom de l'estació.

Feu clic per veure les observacions i els pronòstics meteorològics.

Per canviar el mapa: feu clic els botons verds amb una creu de color negre per apropar; al botó verd amb un guió per allunyar la imatge; o en les fletxes verdes per a mapes adjacents.


METAR-TAF: